Troy, MI

11:01 AM EDT on August 18, 2017 (GMT -0400)
Troy

Weather History for KVLL - January, 2014

Change the Weather History Date:

Monday, January 20, 2014

  Actual Average (KDET) Record (KDET)
Temperature  
Mean Temperature 20 °F -  
Max Temperature 29 °F 30 °F 57 °F (1951)
Min Temperature 11 °F 19 °F -13 °F (1985)
Degree Days  
Heating Degree Days 44    
Moisture  
Dew Point 15 °F    
Average Humidity 75    
Maximum Humidity 94    
Minimum Humidity 56    
Precipitation  
Precipitation 0.00 in - - ()
Sea Level Pressure  
Sea Level Pressure 29.82 in    
Wind  
Wind Speed 8 mph (NNW)    
Max Wind Speed 15 mph    
Max Gust Speed 21 mph    
Visibility 8 miles    
Events Snow    
Averages and records for this station are not official NWS values.
T = Trace of Precipitation, MM = Missing Value Source: NWS Daily Summary

Daily Weather History Graph

Daily Weather History Graph

Search for Another Location

Airport or City:

Trip Planner

Search our weather history database for the weather conditions in past years. The results will help you decide how hot, cold, wet, or windy it might be!

Date:

Astronomy

Jan. 20, 2014 Rise Set
Actual Time 7:56 AM EST 5:31 PM EST
Civil Twilight 7:26 AM EST 6:01 PM EST
Nautical Twilight 6:51 AM EST 6:36 PM EST
Astronomical Twilight 6:18 AM EST 7:09 PM EST
Moon 10:11 PM EST (1/20) 9:49 AM EST (1/20)
Length of Visible Light 10h 35m
Length of Day
9h 34m
Waning Gibbous, 83% of the Moon is Illuminated
Jan 20
Waning Gibbous
Jan 24
Last Quarter
Jan 30
New
Feb 6
First Quarter
Feb 14
Full

Hourly Weather History & Observations

Time (EST) Temp. Windchill Dew Point Humidity Pressure Visibility Wind Dir Wind Speed Gust Speed Precip Events Conditions
12:14 AM 27.9 °F 19.8 °F 22.1 °F 79% 29.55 in 10.0 mi SSW 8.1 mph - N/A   Overcast
12:35 AM 27.9 °F 19.1 °F 22.1 °F 79% 29.53 in 10.0 mi SW 9.2 mph - N/A   Overcast
12:55 AM 27.5 °F 20.2 °F 22.1 °F 80% 29.53 in 10.0 mi SW 6.9 mph - N/A   Overcast
1:14 AM 27.5 °F 19.3 °F 22.1 °F 80% 29.52 in 10.0 mi SW 8.1 mph - N/A   Overcast
1:35 AM 27.5 °F 18.6 °F 22.1 °F 80% 29.52 in 10.0 mi SW 9.2 mph - N/A   Overcast
1:54 AM 27.9 °F 20.6 °F 22.5 °F 80% 29.52 in 10.0 mi SW 6.9 mph - N/A   Overcast
2:15 AM 28.0 °F 20.0 °F 22.8 °F 81% 29.53 in 10.0 mi SW 8.1 mph - N/A   Overcast
2:34 AM 28.2 °F 20.2 °F 23.4 °F 82% 29.53 in 10.0 mi SW 8.1 mph - N/A   Overcast
2:55 AM 28.2 °F 22.0 °F 23.7 °F 83% 29.54 in 10.0 mi SW 5.8 mph - N/A   Overcast
3:15 AM 28.0 °F 21.7 °F 24.4 °F 86% 29.56 in 5.0 mi WSW 5.8 mph - N/A   Overcast
3:34 AM 27.9 °F 21.5 °F 24.8 °F 88% 29.55 in 5.0 mi SW 5.8 mph - N/A   Overcast
3:55 AM 27.9 °F 21.5 °F 25.2 °F 90% 29.57 in 7.0 mi WSW 5.8 mph - N/A   Overcast
4:15 AM 27.9 °F 22.6 °F 25.5 °F 91% 29.57 in 5.0 mi WSW 4.6 mph - N/A   Overcast
4:34 AM 27.7 °F 22.4 °F 25.7 °F 92% 29.59 in 5.0 mi WSW 4.6 mph - N/A   Overcast
4:55 AM 27.9 °F 22.6 °F 26.1 °F 93% 29.60 in 5.0 mi WSW 4.6 mph - N/A   Overcast
5:14 AM 28.2 °F 24.4 °F 26.2 °F 92% 29.61 in 5.0 mi WSW 3.5 mph - N/A   Overcast
5:35 AM 28.4 °F 23.3 °F 26.6 °F 93% 29.61 in 4.0 mi West 4.6 mph - N/A   Overcast
5:54 AM 28.9 °F 23.9 °F 27.1 °F 93% 29.62 in 3.0 mi West 4.6 mph - N/A   Overcast
6:15 AM 29.1 °F 24.1 °F 27.5 °F 94% 29.65 in 3.0 mi WNW 4.6 mph - N/A   Overcast
6:34 AM 29.1 °F 18.4 °F 27.3 °F 93% 29.67 in 3.0 mi North 13.8 mph 19.6 mph N/A   Overcast
6:55 AM 26.2 °F 15.8 °F 23.5 °F 90% 29.69 in 7.0 mi North 11.5 mph 18.4 mph N/A   Overcast
7:14 AM 25.5 °F 16.2 °F 23.0 °F 90% 29.70 in 7.0 mi North 9.2 mph - N/A   Overcast
7:35 AM 23.9 °F 11.7 °F 21.0 °F 89% 29.72 in 5.0 mi North 13.8 mph 20.7 mph N/A   Overcast
7:54 AM 22.8 °F 9.9 °F 19.2 °F 86% 29.73 in 10.0 mi North 15.0 mph 20.7 mph N/A   Overcast
8:14 AM 21.9 °F 10.4 °F 17.6 °F 83% 29.74 in 10.0 mi NNW 11.5 mph 19.6 mph N/A   Overcast
8:34 AM 21.6 °F 12.1 °F 17.2 °F 83% 29.75 in 10.0 mi NNW 8.1 mph - N/A   Overcast
8:54 AM 20.8 °F 9.0 °F 15.1 °F 78% 29.77 in 10.0 mi North 11.5 mph 18.4 mph N/A   Overcast
9:14 AM 20.7 °F 9.5 °F 15.1 °F 79% 29.79 in 10.0 mi NNW 10.4 mph - N/A   Overcast
9:34 AM 20.3 °F 12.5 °F 14.9 °F 80% 29.78 in 10.0 mi NW 5.8 mph - N/A   Overcast
9:54 AM 20.8 °F 9.0 °F 14.9 °F 78% 29.82 in 10.0 mi NW 11.5 mph 16.1 mph N/A   Overcast
10:14 AM 20.3 °F 8.3 °F 12.2 °F 71% 29.84 in 10.0 mi NW 11.5 mph - N/A   Overcast
10:35 AM 20.7 °F 10.2 °F 11.3 °F 67% 29.85 in 10.0 mi NW 9.2 mph 17.3 mph N/A   Overcast
10:54 AM 21.7 °F 8.5 °F 10.8 °F 63% 29.86 in 10.0 mi NW 15.0 mph 18.4 mph N/A   Mostly Cloudy
11:14 AM 21.9 °F 11.0 °F 10.6 °F 62% 29.86 in 10.0 mi NNW 10.4 mph - N/A   Overcast
11:34 AM 22.1 °F 10.6 °F 10.8 °F 62% 29.86 in 10.0 mi NW 11.5 mph - N/A   Mostly Cloudy
11:55 AM 21.7 °F 12.3 °F 10.0 °F 61% 29.86 in 10.0 mi NNW 8.1 mph - N/A   Overcast
12:14 PM 22.1 °F 14.7 °F 10.0 °F 60% 29.85 in 10.0 mi NNW 5.8 mph - N/A   Overcast
12:34 PM 22.6 °F 12.6 °F 10.0 °F 59% 29.85 in 10.0 mi NW 9.2 mph - N/A   Overcast
12:54 PM 22.6 °F 14.3 °F 9.5 °F 57% 29.85 in 10.0 mi NW 6.9 mph - N/A   Overcast
1:14 PM 23.4 °F 14.3 °F 10.0 °F 57% 29.85 in 10.0 mi NW 8.1 mph - N/A   Overcast
1:35 PM 22.8 °F 14.5 °F 9.3 °F 56% 29.86 in 10.0 mi WNW 6.9 mph - N/A   Overcast
1:54 PM 22.8 °F 12.9 °F 9.1 °F 56% 29.87 in 10.0 mi NW 9.2 mph - N/A   Overcast
2:14 PM 22.8 °F 14.5 °F 9.9 °F 58% 29.88 in 10.0 mi NW 6.9 mph - N/A   Overcast
2:35 PM 22.5 °F 16.3 °F 9.3 °F 57% 29.88 in 10.0 mi North 4.6 mph - N/A   Overcast
2:54 PM 22.8 °F 16.7 °F 9.7 °F 57% 29.89 in 10.0 mi WNW 4.6 mph - N/A   Overcast
3:14 PM 22.8 °F 14.5 °F 10.0 °F 58% 29.89 in 10.0 mi NW 6.9 mph - N/A   Overcast
3:34 PM 23.0 °F 15.8 °F 10.2 °F 58% 29.90 in 10.0 mi NNW 5.8 mph - N/A   Overcast
3:55 PM 22.8 °F 16.7 °F 10.2 °F 59% 29.92 in 10.0 mi North 4.6 mph - N/A   Overcast
4:14 PM 22.5 °F 17.8 °F 10.4 °F 60% 29.93 in 10.0 mi North 3.5 mph - N/A   Overcast
4:35 PM 21.9 °F - 11.7 °F 65% 29.94 in 10.0 mi Calm Calm - N/A   Overcast
4:54 PM 21.6 °F 13.0 °F 11.8 °F 66% 29.94 in 10.0 mi North 6.9 mph - N/A   Overcast
5:14 PM 19.6 °F 7.4 °F 11.3 °F 70% 29.96 in 4.0 mi NE 11.5 mph - N/A Snow Light Snow
5:34 PM 18.1 °F 5.6 °F 11.7 °F 76% 29.96 in 2.5 mi NE 11.5 mph 17.3 mph N/A Snow Light Snow
5:54 PM 16.9 °F 4.1 °F 11.5 °F 79% 29.97 in 5.0 mi NE 11.5 mph - N/A Snow Light Snow
6:13 PM 16.2 °F 2.5 °F 9.3 °F 74% 29.98 in 10.0 mi NNE 12.7 mph - N/A   Overcast
6:34 PM 15.8 °F 2.1 °F 8.6 °F 73% 29.99 in 5.0 mi NNE 12.7 mph - N/A Snow Light Snow
6:50 PM 15.4 °F 3.8 °F 8.6 °F 74% 30.00 in 7.0 mi NE 9.2 mph - N/A Snow Light Snow
7:13 PM 14.9 °F 1.6 °F 8.2 °F 75% 30.02 in 4.0 mi North 11.5 mph - N/A Snow Light Snow
7:33 PM 14.7 °F 2.1 °F 8.8 °F 77% 30.03 in 4.0 mi North 10.4 mph - N/A Snow Light Snow
7:53 PM 14.5 °F 3.6 °F 9.1 °F 79% 30.04 in 2.0 mi NNE 8.1 mph - N/A Snow Light Snow
8:13 PM 14.2 °F 2.2 °F 9.5 °F 82% 30.04 in 1.8 mi NE 9.2 mph - N/A Snow Light Snow
8:30 PM 14.0 °F 1.2 °F 8.4 °F 78% 30.04 in 5.0 mi North 10.4 mph - N/A Snow Light Snow
8:51 PM 13.6 °F 0.0 °F 9.0 °F 82% 30.05 in 2.0 mi NE 11.5 mph - N/A Snow Light Snow
9:14 PM 13.1 °F -0.7 °F 6.6 °F 75% 30.05 in 10.0 mi NE 11.5 mph 17.3 mph N/A Snow Light Snow
9:33 PM 12.9 °F 1.6 °F 5.9 °F 74% 30.06 in 7.0 mi NNE 8.1 mph - N/A   Overcast
9:54 PM 12.9 °F 3.8 °F 5.7 °F 73% 30.07 in 10.0 mi NNE 5.8 mph - N/A   Overcast
10:13 PM 12.9 °F 2.6 °F 5.5 °F 72% 30.06 in 5.0 mi NNE 6.9 mph - N/A   Haze
10:34 PM 12.7 °F -0.4 °F 5.7 °F 74% 30.06 in 7.0 mi NNE 10.4 mph - N/A   Overcast
10:53 PM 12.2 °F -0.2 °F 4.8 °F 72% 30.07 in 4.0 mi NNE 9.2 mph - N/A Snow Light Snow
11:10 PM 12.2 °F -1.0 °F 5.0 °F 73% 30.07 in 3.0 mi NE 10.4 mph - N/A Snow Light Snow
11:29 PM 12.0 °F 2.7 °F 5.0 °F 73% 30.07 in 3.0 mi NNE 5.8 mph - N/A Snow Light Snow
11:48 PM 11.7 °F 0.0 °F 4.8 °F 74% 30.07 in 10.0 mi North 8.1 mph - N/A Snow Light Snow